sensor_id;sensor_type;location;lat;lon;timestamp;pressure;altitude;pressure_sealevel;temperature;humidity
73151;BME280;61354;50.758;6.106;2022-12-07T00:00:27;99426.75;;;3.21;100.00
73151;BME280;61354;50.758;6.106;2022-12-07T00:02:53;99432.25;;;3.21;100.00
73151;BME280;61354;50.758;6.106;2022-12-07T00:05:18;99414.16;;;3.20;100.00
73151;BME280;61354;50.758;6.106;2022-12-07T00:07:44;99406.75;;;3.20;100.00
73151;BME280;61354;50.758;6.106;2022-12-07T00:10:09;99411.09;;;3.21;100.00
73151;BME280;61354;50.758;6.106;2022-12-07T00:12:35;99414.56;;;3.27;100.00
73151;BME280;61354;50.758;6.106;2022-12-07T00:15:00;99411.53;;;3.29;100.00
73151;BME280;61354;50.758;6.106;2022-12-07T00:17:26;99412.03;;;3.31;100.00
73151;BME280;61354;50.758;6.106;2022-12-07T00:19:51;99407.75;;;3.24;100.00
73151;BME280;61354;50.758;6.106;2022-12-07T00:22:16;99395.28;;;3.32;100.00
73151;BME280;61354;50.758;6.106;2022-12-07T00:24:42;99394.44;;;3.32;100.00
73151;BME280;61354;50.758;6.106;2022-12-07T00:27:07;99394.25;;;3.28;100.00
73151;BME280;61354;50.758;6.106;2022-12-07T00:29:33;99385.72;;;3.30;100.00
73151;BME280;61354;50.758;6.106;2022-12-07T00:31:58;99391.69;;;3.32;100.00
73151;BME280;61354;50.758;6.106;2022-12-07T00:34:23;99389.16;;;3.21;100.00
73151;BME280;61354;50.758;6.106;2022-12-07T00:36:49;99391.00;;;3.26;100.00
73151;BME280;61354;50.758;6.106;2022-12-07T00:39:15;99393.84;;;3.21;100.00
73151;BME280;61354;50.758;6.106;2022-12-07T00:41:41;99390.06;;;3.31;100.00
73151;BME280;61354;50.758;6.106;2022-12-07T00:44:06;99385.50;;;3.26;100.00
73151;BME280;61354;50.758;6.106;2022-12-07T00:46:32;99383.88;;;3.25;100.00
73151;BME280;61354;50.758;6.106;2022-12-07T00:48:57;99394.16;;;3.19;100.00
73151;BME280;61354;50.758;6.106;2022-12-07T00:51:24;99384.19;;;3.23;100.00
73151;BME280;61354;50.758;6.106;2022-12-07T00:53:50;99385.28;;;3.22;100.00
73151;BME280;61354;50.758;6.106;2022-12-07T00:56:17;99388.34;;;3.21;100.00
73151;BME280;61354;50.758;6.106;2022-12-07T00:58:43;99387.75;;;3.24;100.00
73151;BME280;61354;50.758;6.106;2022-12-07T01:01:09;99382.06;;;3.20;100.00
73151;BME280;61354;50.758;6.106;2022-12-07T01:03:36;99382.34;;;3.19;100.00
73151;BME280;61354;50.758;6.106;2022-12-07T01:06:02;99379.19;;;3.26;100.00
73151;BME280;61354;50.758;6.106;2022-12-07T01:08:28;99385.38;;;3.17;100.00
73151;BME280;61354;50.758;6.106;2022-12-07T01:11:06;99378.78;;;3.18;100.00
73151;BME280;61354;50.758;6.106;2022-12-07T01:13:33;99380.81;;;3.27;100.00
73151;BME280;61354;50.758;6.106;2022-12-07T01:16:01;99381.44;;;3.23;100.00
73151;BME280;61354;50.758;6.106;2022-12-07T01:18:28;99380.81;;;3.27;100.00
73151;BME280;61354;50.758;6.106;2022-12-07T01:21:14;99389.06;;;3.27;100.00
73151;BME280;61354;50.758;6.106;2022-12-07T01:23:40;99384.47;;;3.22;100.00
73151;BME280;61354;50.758;6.106;2022-12-07T01:26:09;99385.28;;;3.22;100.00
73151;BME280;61354;50.758;6.106;2022-12-07T01:28:35;99382.16;;;3.15;100.00
73151;BME280;61354;50.758;6.106;2022-12-07T01:31:07;99384.06;;;3.15;100.00
73151;BME280;61354;50.758;6.106;2022-12-07T01:33:36;99383.19;;;3.19;100.00
73151;BME280;61354;50.758;6.106;2022-12-07T01:36:19;99387.53;;;3.20;100.00
73151;BME280;61354;50.758;6.106;2022-12-07T01:38:46;99386.94;;;3.23;100.00
73151;BME280;61354;50.758;6.106;2022-12-07T01:41:13;99384.69;;;3.26;100.00
73151;BME280;61354;50.758;6.106;2022-12-07T01:44:08;99392.50;;;3.18;100.00
73151;BME280;61354;50.758;6.106;2022-12-07T01:46:34;99385.28;;;3.22;100.00
73151;BME280;61354;50.758;6.106;2022-12-07T01:49:00;99402.66;;;3.18;100.00
73151;BME280;61354;50.758;6.106;2022-12-07T01:51:27;99399.44;;;3.16;100.00
73151;BME280;61354;50.758;6.106;2022-12-07T01:53:53;99397.69;;;3.20;100.00
73151;BME280;61354;50.758;6.106;2022-12-07T01:56:22;99399.53;;;3.24;100.00
73151;BME280;61354;50.758;6.106;2022-12-07T01:58:50;99390.66;;;3.14;100.00
73151;BME280;61354;50.758;6.106;2022-12-07T02:01:17;99386.50;;;3.16;100.00
73151;BME280;61354;50.758;6.106;2022-12-07T02:03:44;99392.00;;;3.16;100.00
73151;BME280;61354;50.758;6.106;2022-12-07T02:06:12;99387.00;;;3.18;100.00
73151;BME280;61354;50.758;6.106;2022-12-07T02:08:41;99386.09;;;3.23;100.00
73151;BME280;61354;50.758;6.106;2022-12-07T02:11:08;99382.66;;;3.17;100.00
73151;BME280;61354;50.758;6.106;2022-12-07T02:13:35;99376.25;;;3.22;100.00
73151;BME280;61354;50.758;6.106;2022-12-07T02:21:35;99367.41;;;3.25;100.00
73151;BME280;61354;50.758;6.106;2022-12-07T02:24:24;99367.81;;;3.18;100.00
73151;BME280;61354;50.758;6.106;2022-12-07T02:32:08;99372.78;;;3.16;100.00
73151;BME280;61354;50.758;6.106;2022-12-07T02:34:58;99370.47;;;3.23;100.00
73151;BME280;61354;50.758;6.106;2022-12-07T02:37:36;99374.31;;;3.22;100.00
73151;BME280;61354;50.758;6.106;2022-12-07T02:42:55;99368.00;;;3.22;100.00
73151;BME280;61354;50.758;6.106;2022-12-07T02:45:25;99375.44;;;3.21;100.00
73151;BME280;61354;50.758;6.106;2022-12-07T02:47:55;99367.31;;;3.16;100.00
73151;BME280;61354;50.758;6.106;2022-12-07T02:50:21;99366.41;;;3.21;100.00
73151;BME280;61354;50.758;6.106;2022-12-07T02:52:47;99361.13;;;3.24;100.00
73151;BME280;61354;50.758;6.106;2022-12-07T02:55:15;99363.13;;;3.19;100.00
73151;BME280;61354;50.758;6.106;2022-12-07T03:01:02;99358.66;;;3.23;100.00
73151;BME280;61354;50.758;6.106;2022-12-07T03:03:30;99354.00;;;3.23;100.00
73151;BME280;61354;50.758;6.106;2022-12-07T03:06:11;99352.34;;;3.22;100.00
73151;BME280;61354;50.758;6.106;2022-12-07T03:11:50;99360.09;;;3.20;100.00
73151;BME280;61354;50.758;6.106;2022-12-07T03:14:19;99360.09;;;3.20;100.00
73151;BME280;61354;50.758;6.106;2022-12-07T03:16:57;99359.34;;;3.15;100.00
73151;BME280;61354;50.758;6.106;2022-12-07T03:19:26;99363.06;;;3.24;100.00
73151;BME280;61354;50.758;6.106;2022-12-07T03:21:57;99369.34;;;3.24;100.00
73151;BME280;61354;50.758;6.106;2022-12-07T03:24:29;99371.28;;;3.24;100.00
73151;BME280;61354;50.758;6.106;2022-12-07T03:27:13;99366.28;;;3.26;100.00
73151;BME280;61354;50.758;6.106;2022-12-07T03:29:48;99361.72;;;3.21;100.00
73151;BME280;61354;50.758;6.106;2022-12-07T03:32:29;99369.63;;;3.23;100.00
73151;BME280;61354;50.758;6.106;2022-12-07T03:35:25;99366.59;;;3.24;100.00
73151;BME280;61354;50.758;6.106;2022-12-07T03:37:57;99361.59;;;3.27;100.00
73151;BME280;61354;50.758;6.106;2022-12-07T03:40:41;99362.94;;;3.29;100.00
73151;BME280;61354;50.758;6.106;2022-12-07T03:43:10;99361.41;;;3.23;100.00
73151;BME280;61354;50.758;6.106;2022-12-07T03:48:33;99359.50;;;3.23;100.00
73151;BME280;61354;50.758;6.106;2022-12-07T03:53:51;99362.13;;;3.29;100.00
73151;BME280;61354;50.758;6.106;2022-12-07T03:56:20;99364.56;;;3.30;100.00
73151;BME280;61354;50.758;6.106;2022-12-07T03:58:47;99358.25;;;3.30;100.00
73151;BME280;61354;50.758;6.106;2022-12-07T04:01:13;99365.38;;;3.31;100.00
73151;BME280;61354;50.758;6.106;2022-12-07T04:03:38;99365.97;;;3.28;100.00
73151;BME280;61354;50.758;6.106;2022-12-07T04:06:04;99367.19;;;3.21;100.00
73151;BME280;61354;50.758;6.106;2022-12-07T04:08:29;99361.94;;;3.25;100.00
73151;BME280;61354;50.758;6.106;2022-12-07T04:10:55;99361.41;;;3.23;100.00
73151;BME280;61354;50.758;6.106;2022-12-07T04:13:20;99357.25;;;3.26;100.00
73151;BME280;61354;50.758;6.106;2022-12-07T04:15:46;99355.22;;;3.17;100.00
73151;BME280;61354;50.758;6.106;2022-12-07T04:18:11;99357.03;;;3.22;100.00
73151;BME280;61354;50.758;6.106;2022-12-07T04:20:37;99349.00;;;3.26;100.00
73151;BME280;61354;50.758;6.106;2022-12-07T04:23:02;99351.13;;;3.15;100.00
73151;BME280;61354;50.758;6.106;2022-12-07T04:25:28;99348.53;;;3.23;100.00
73151;BME280;61354;50.758;6.106;2022-12-07T04:27:53;99353.81;;;3.20;100.00
73151;BME280;61354;50.758;6.106;2022-12-07T04:30:19;99360.69;;;3.17;100.00
73151;BME280;61354;50.758;6.106;2022-12-07T04:32:44;99360.69;;;3.17;100.00
73151;BME280;61354;50.758;6.106;2022-12-07T04:35:10;99363.84;;;3.24;100.00
73151;BME280;61354;50.758;6.106;2022-12-07T04:37:35;99357.84;;;3.22;100.00
73151;BME280;61354;50.758;6.106;2022-12-07T04:40:01;99355.63;;;3.24;100.00
73151;BME280;61354;50.758;6.106;2022-12-07T04:42:27;99347.69;;;3.23;100.00
73151;BME280;61354;50.758;6.106;2022-12-07T04:44:53;99346.28;;;3.26;100.00
73151;BME280;61354;50.758;6.106;2022-12-07T04:47:18;99351.75;;;3.26;100.00
73151;BME280;61354;50.758;6.106;2022-12-07T04:49:43;99348.91;;;3.17;100.00
73151;BME280;61354;50.758;6.106;2022-12-07T04:52:09;99346.38;;;3.20;100.00
73151;BME280;61354;50.758;6.106;2022-12-07T04:54:34;99352.34;;;3.22;100.00
73151;BME280;61354;50.758;6.106;2022-12-07T04:57:00;99352.25;;;3.28;100.00
73151;BME280;61354;50.758;6.106;2022-12-07T04:59:25;99353.38;;;3.27;100.00
73151;BME280;61354;50.758;6.106;2022-12-07T05:01:50;99350.34;;;3.28;100.00
73151;BME280;61354;50.758;6.106;2022-12-07T05:04:16;99346.06;;;3.22;100.00
73151;BME280;61354;50.758;6.106;2022-12-07T05:06:43;99345.47;;;3.25;100.00
73151;BME280;61354;50.758;6.106;2022-12-07T05:09:08;99344.44;;;3.21;100.00
73151;BME280;61354;50.758;6.106;2022-12-07T05:11:34;99346.38;;;3.20;100.00
73151;BME280;61354;50.758;6.106;2022-12-07T05:14:19;99340.38;;;3.18;100.00
73151;BME280;61354;50.758;6.106;2022-12-07T05:16:48;99351.34;;;3.18;100.00
73151;BME280;61354;50.758;6.106;2022-12-07T05:19:15;99349.72;;;3.17;100.00
73151;BME280;61354;50.758;6.106;2022-12-07T05:21:40;99352.56;;;3.12;100.00
73151;BME280;61354;50.758;6.106;2022-12-07T05:24:07;99348.59;;;3.18;100.00
73151;BME280;61354;50.758;6.106;2022-12-07T05:26:33;99346.47;;;3.15;100.00
73151;BME280;61354;50.758;6.106;2022-12-07T05:28:59;99348.59;;;3.18;100.00
73151;BME280;61354;50.758;6.106;2022-12-07T05:31:25;99349.28;;;3.10;100.00
73151;BME280;61354;50.758;6.106;2022-12-07T05:33:51;99349.50;;;3.14;100.00
73151;BME280;61354;50.758;6.106;2022-12-07T05:36:17;99349.72;;;3.04;100.00
73151;BME280;61354;50.758;6.106;2022-12-07T05:38:43;99350.53;;;3.04;100.00
73151;BME280;61354;50.758;6.106;2022-12-07T05:41:12;99344.22;;;3.04;100.00
73151;BME280;61354;50.758;6.106;2022-12-07T05:43:58;99346.22;;;2.98;100.00
73151;BME280;61354;50.758;6.106;2022-12-07T05:46:23;99334.25;;;2.94;100.00
73151;BME280;61354;50.758;6.106;2022-12-07T05:48:49;99346.88;;;2.95;100.00
73151;BME280;61354;50.758;6.106;2022-12-07T05:51:15;99343.00;;;2.96;100.00
73151;BME280;61354;50.758;6.106;2022-12-07T05:53:40;99341.56;;;2.98;100.00
73151;BME280;61354;50.758;6.106;2022-12-07T05:56:08;99336.28;;;3.02;100.00
73151;BME280;61354;50.758;6.106;2022-12-07T05:58:34;99332.94;;;3.05;100.00
73151;BME280;61354;50.758;6.106;2022-12-07T06:01:17;99341.16;;;3.05;100.00
73151;BME280;61354;50.758;6.106;2022-12-07T06:03:43;99337.94;;;3.03;100.00
73151;BME280;61354;50.758;6.106;2022-12-07T06:06:08;99337.78;;;2.94;100.00
73151;BME280;61354;50.758;6.106;2022-12-07T06:08:34;99344.19;;;2.90;100.00
73151;BME280;61354;50.758;6.106;2022-12-07T06:10:59;99339.59;;;2.85;100.00
73151;BME280;61354;50.758;6.106;2022-12-07T06:13:43;99338.31;;;2.96;100.00
73151;BME280;61354;50.758;6.106;2022-12-07T06:16:09;99336.91;;;2.99;100.00
73151;BME280;61354;50.758;6.106;2022-12-07T06:18:34;99346.88;;;2.95;100.00
73151;BME280;61354;50.758;6.106;2022-12-07T06:20:59;99353.25;;;2.90;100.00
73151;BME280;61354;50.758;6.106;2022-12-07T06:23:25;99358.84;;;2.99;100.00
73151;BME280;61354;50.758;6.106;2022-12-07T06:25:53;99352.03;;;2.96;100.00
73151;BME280;61354;50.758;6.106;2022-12-07T06:28:18;99355.59;;;2.97;100.00
73151;BME280;61354;50.758;6.106;2022-12-07T06:30:44;99355.69;;;2.92;100.00
73151;BME280;61354;50.758;6.106;2022-12-07T06:33:09;99352.75;;;3.02;100.00
73151;BME280;61354;50.758;6.106;2022-12-07T06:35:35;99353.75;;;3.06;100.00
73151;BME280;61354;50.758;6.106;2022-12-07T06:38:00;99356.59;;;3.01;100.00
73151;BME280;61354;50.758;6.106;2022-12-07T06:40:25;99350.09;;;2.97;100.00
73151;BME280;61354;50.758;6.106;2022-12-07T06:42:51;99345.53;;;3.06;100.00
73151;BME280;61354;50.758;6.106;2022-12-07T06:45:16;99350.94;;;3.11;100.00
73151;BME280;61354;50.758;6.106;2022-12-07T06:47:42;99348.28;;;3.06;100.00
73151;BME280;61354;50.758;6.106;2022-12-07T06:50:07;99356.44;;;3.11;100.00
73151;BME280;61354;50.758;6.106;2022-12-07T06:52:33;99353.97;;;3.10;100.00
73151;BME280;61354;50.758;6.106;2022-12-07T06:54:59;99355.81;;;3.14;100.00
73151;BME280;61354;50.758;6.106;2022-12-07T06:57:25;99353.00;;;3.19;100.00
73151;BME280;61354;50.758;6.106;2022-12-07T06:59:50;99358.97;;;3.21;100.00
73151;BME280;61354;50.758;6.106;2022-12-07T07:02:16;99350.53;;;3.18;100.00
73151;BME280;61354;50.758;6.106;2022-12-07T07:04:41;99353.69;;;3.11;100.00
73151;BME280;61354;50.758;6.106;2022-12-07T07:07:07;99349.72;;;3.17;100.00
73151;BME280;61354;50.758;6.106;2022-12-07T07:09:32;99356.03;;;3.18;100.00
73151;BME280;61354;50.758;6.106;2022-12-07T07:11:58;99352.25;;;3.14;100.00
73151;BME280;61354;50.758;6.106;2022-12-07T07:14:23;99352.56;;;3.12;100.00
73151;BME280;61354;50.758;6.106;2022-12-07T07:16:49;99361.09;;;3.11;100.00
73151;BME280;61354;50.758;6.106;2022-12-07T07:19:14;99357.03;;;3.08;100.00
73151;BME280;61354;50.758;6.106;2022-12-07T07:21:39;99365.84;;;3.05;100.00
73151;BME280;61354;50.758;6.106;2022-12-07T07:24:05;99368.59;;;3.05;100.00
73151;BME280;61354;50.758;6.106;2022-12-07T07:26:31;99365.16;;;3.13;100.00
73151;BME280;61354;50.758;6.106;2022-12-07T07:28:56;99368.22;;;3.12;100.00
73151;BME280;61354;50.758;6.106;2022-12-07T07:31:21;99362.53;;;3.08;100.00
73151;BME280;61354;50.758;6.106;2022-12-07T07:33:47;99365.75;;;3.10;100.00
73151;BME280;61354;50.758;6.106;2022-12-07T07:36:12;99364.13;;;3.09;100.00
73151;BME280;61354;50.758;6.106;2022-12-07T07:38:38;99359.69;;;3.13;100.00
73151;BME280;61354;50.758;6.106;2022-12-07T07:41:03;99365.53;;;3.07;100.00
73151;BME280;61354;50.758;6.106;2022-12-07T07:43:29;99361.94;;;3.11;100.00
73151;BME280;61354;50.758;6.106;2022-12-07T07:45:54;99371.03;;;3.07;100.00
73151;BME280;61354;50.758;6.106;2022-12-07T07:48:20;99365.75;;;3.10;100.00
73151;BME280;61354;50.758;6.106;2022-12-07T07:50:45;99369.13;;;3.07;100.00
73151;BME280;61354;50.758;6.106;2022-12-07T07:53:11;99369.75;;;3.18;100.00
73151;BME280;61354;50.758;6.106;2022-12-07T07:55:36;99360.81;;;3.12;100.00
73151;BME280;61354;50.758;6.106;2022-12-07T07:58:02;99374.81;;;3.11;100.00
73151;BME280;61354;50.758;6.106;2022-12-07T08:00:27;99367.41;;;3.11;100.00
73151;BME280;61354;50.758;6.106;2022-12-07T08:02:53;99369.19;;;3.02;100.00
73151;BME280;61354;50.758;6.106;2022-12-07T08:05:18;99375.31;;;2.99;100.00
73151;BME280;61354;50.758;6.106;2022-12-07T08:07:44;99373.28;;;3.05;100.00
73151;BME280;61354;50.758;6.106;2022-12-07T08:10:11;99374.31;;;3.09;100.00
73151;BME280;61354;50.758;6.106;2022-12-07T08:12:39;99369.94;;;3.08;100.00
73151;BME280;61354;50.758;6.106;2022-12-07T08:15:26;99382.22;;;3.10;100.00
73151;BME280;61354;50.758;6.106;2022-12-07T08:17:52;99381.63;;;3.13;100.00
73151;BME280;61354;50.758;6.106;2022-12-07T08:20:17;99374.72;;;3.16;100.00
73151;BME280;61354;50.758;6.106;2022-12-07T08:22:43;99370.53;;;3.18;100.00
73151;BME280;61354;50.758;6.106;2022-12-07T08:25:08;99376.13;;;3.13;100.00
73151;BME280;61354;50.758;6.106;2022-12-07T08:27:34;99371.88;;;3.21;100.00
73151;BME280;61354;50.758;6.106;2022-12-07T08:29:59;99368.44;;;3.15;100.00
73151;BME280;61354;50.758;6.106;2022-12-07T08:32:24;99377.97;;;3.18;100.00
73151;BME280;61354;50.758;6.106;2022-12-07T08:34:51;99374.72;;;3.16;100.00
73151;BME280;61354;50.758;6.106;2022-12-07T08:37:17;99372.47;;;3.18;100.00
73151;BME280;61354;50.758;6.106;2022-12-07T08:39:43;99373.28;;;3.18;100.00
73151;BME280;61354;50.758;6.106;2022-12-07T08:42:08;99373.81;;;3.20;100.00
73151;BME280;61354;50.758;6.106;2022-12-07T08:44:34;99370.97;;;3.26;100.00
73151;BME280;61354;50.758;6.106;2022-12-07T08:47:02;99382.16;;;3.15;100.00
73151;BME280;61354;50.758;6.106;2022-12-07T08:49:36;99376.94;;;3.00;100.00
73151;BME280;61354;50.758;6.106;2022-12-07T08:52:04;99375.13;;;3.09;100.00
73151;BME280;61354;50.758;6.106;2022-12-07T08:54:30;99377.66;;;3.06;100.00
73151;BME280;61354;50.758;6.106;2022-12-07T08:56:56;99382.91;;;3.02;100.00
73151;BME280;61354;50.758;6.106;2022-12-07T08:59:22;99385.44;;;2.98;100.00
73151;BME280;61354;50.758;6.106;2022-12-07T09:01:48;99386.06;;;2.95;100.00
73151;BME280;61354;50.758;6.106;2022-12-07T09:04:13;99389.72;;;2.91;100.00
73151;BME280;61354;50.758;6.106;2022-12-07T09:06:39;99388.91;;;2.90;100.00
73151;BME280;61354;50.758;6.106;2022-12-07T09:09:04;99379.25;;;2.93;100.00
73151;BME280;61354;50.758;6.106;2022-12-07T09:11:31;99385.75;;;2.97;100.00
73151;BME280;61354;50.758;6.106;2022-12-07T09:13:57;99394.91;;;2.92;100.00
73151;BME280;61354;50.758;6.106;2022-12-07T09:16:22;99398.44;;;2.93;100.00
73151;BME280;61354;50.758;6.106;2022-12-07T09:18:48;99400.59;;;2.96;100.00
73151;BME280;61354;50.758;6.106;2022-12-07T09:21:13;99400.81;;;2.99;100.00
73151;BME280;61354;50.758;6.106;2022-12-07T09:23:41;99393.41;;;3.00;100.00
73151;BME280;61354;50.758;6.106;2022-12-07T09:26:06;99394.63;;;3.08;100.00
73151;BME280;61354;50.758;6.106;2022-12-07T09:28:32;99389.84;;;3.13;100.00
73151;BME280;61354;50.758;6.106;2022-12-07T09:30:57;99391.09;;;3.07;100.00
73151;BME280;61354;50.758;6.106;2022-12-07T09:33:23;99397.66;;;3.06;100.00
73151;BME280;61354;50.758;6.106;2022-12-07T09:35:50;99392.50;;;3.18;100.00
73151;BME280;61354;50.758;6.106;2022-12-07T09:38:17;99396.47;;;3.12;100.00
73151;BME280;61354;50.758;6.106;2022-12-07T09:40:43;99401.38;;;3.29;100.00
73151;BME280;61354;50.758;6.106;2022-12-07T09:43:35;99387.34;;;3.31;100.00
73151;BME280;61354;50.758;6.106;2022-12-07T09:46:01;99394.38;;;3.37;100.00
73151;BME280;61354;50.758;6.106;2022-12-07T09:48:36;99392.44;;;3.37;100.00
73151;BME280;61354;50.758;6.106;2022-12-07T09:51:17;99383.88;;;3.39;100.00
73151;BME280;61354;50.758;6.106;2022-12-07T09:53:43;99385.50;;;3.40;100.00
73151;BME280;61354;50.758;6.106;2022-12-07T09:56:17;99384.31;;;3.46;100.00
73151;BME280;61354;50.758;6.106;2022-12-07T09:58:44;99384.19;;;3.23;100.00
73151;BME280;61354;50.758;6.106;2022-12-07T10:01:20;99379.81;;;3.50;100.00
73151;BME280;61354;50.758;6.106;2022-12-07T10:03:52;99380.25;;;3.57;100.00
73151;BME280;61354;50.758;6.106;2022-12-07T10:06:18;99375.44;;;3.63;100.00
73151;BME280;61354;50.758;6.106;2022-12-07T10:08:43;99384.50;;;3.63;100.00
73151;BME280;61354;50.758;6.106;2022-12-07T10:11:10;99375.44;;;3.63;100.00
73151;BME280;61354;50.758;6.106;2022-12-07T10:13:42;99371.06;;;3.62;100.00
73151;BME280;61354;50.758;6.106;2022-12-07T10:18:49;99372.00;;;3.57;100.00
73151;BME280;61354;50.758;6.106;2022-12-07T10:21:20;99366.78;;;3.56;100.00
73151;BME280;61354;50.758;6.106;2022-12-07T10:26:34;99354.69;;;3.43;100.00
73151;BME280;61354;50.758;6.106;2022-12-07T10:29:13;99362.66;;;3.44;100.00
73151;BME280;61354;50.758;6.106;2022-12-07T10:31:40;99367.00;;;3.59;100.00
73151;BME280;61354;50.758;6.106;2022-12-07T10:34:21;99353.25;;;3.73;100.00
73151;BME280;61354;50.758;6.106;2022-12-07T10:36:49;99350.94;;;3.66;100.00
73151;BME280;61354;50.758;6.106;2022-12-07T10:39:18;99349.19;;;3.70;100.00
73151;BME280;61354;50.758;6.106;2022-12-07T10:41:57;99346.53;;;3.79;100.00
73151;BME280;61354;50.758;6.106;2022-12-07T10:44:26;99351.72;;;3.94;100.00
73151;BME280;61354;50.758;6.106;2022-12-07T10:50:45;99348.22;;;4.03;100.00
73151;BME280;61354;50.758;6.106;2022-12-07T11:00:21;99330.66;;;3.76;100.00
73151;BME280;61354;50.758;6.106;2022-12-07T11:05:55;99322.66;;;3.52;100.00
73151;BME280;61354;50.758;6.106;2022-12-07T11:08:57;99325.31;;;3.57;100.00
73151;BME280;61354;50.758;6.106;2022-12-07T11:11:39;99315.53;;;3.65;100.00
73151;BME280;61354;50.758;6.106;2022-12-07T11:17:22;99309.44;;;3.68;100.00
73151;BME280;61354;50.758;6.106;2022-12-07T11:22:35;99300.56;;;3.71;100.00
73151;BME280;61354;50.758;6.106;2022-12-07T11:25:16;99301.06;;;3.73;100.00
73151;BME280;61354;50.758;6.106;2022-12-07T11:30:38;99293.09;;;3.99;100.00
73151;BME280;61354;50.758;6.106;2022-12-07T11:38:25;99277.59;;;4.03;99.99
73151;BME280;61354;50.758;6.106;2022-12-07T11:40:56;99279.09;;;4.09;100.00
73151;BME280;61354;50.758;6.106;2022-12-07T11:43:52;99265.34;;;4.09;100.00
73151;BME280;61354;50.758;6.106;2022-12-07T11:46:19;99268.63;;;4.11;100.00
73151;BME280;61354;50.758;6.106;2022-12-07T11:49:07;99265.34;;;4.09;99.30
73151;BME280;61354;50.758;6.106;2022-12-07T11:51:37;99271.41;;;3.97;98.31
73151;BME280;61354;50.758;6.106;2022-12-07T11:54:26;99272.72;;;4.00;98.88
73151;BME280;61354;50.758;6.106;2022-12-07T11:56:54;99275.34;;;4.05;99.82
73151;BME280;61354;50.758;6.106;2022-12-07T11:59:29;99270.84;;;4.09;99.95
73151;BME280;61354;50.758;6.106;2022-12-07T12:02:14;99270.84;;;4.09;99.02
73151;BME280;61354;50.758;6.106;2022-12-07T12:04:54;99269.34;;;4.03;98.52
73151;BME280;61354;50.758;6.106;2022-12-07T12:07:24;99262.28;;;3.88;98.32
73151;BME280;61354;50.758;6.106;2022-12-07T12:10:02;99268.31;;;3.77;98.66
73151;BME280;61354;50.758;6.106;2022-12-07T12:23:20;99254.66;;;3.85;99.40
73151;BME280;61354;50.758;6.106;2022-12-07T12:33:50;99251.03;;;3.76;99.26
73151;BME280;61354;50.758;6.106;2022-12-07T12:36:20;99245.13;;;3.69;100.00
73151;BME280;61354;50.758;6.106;2022-12-07T12:49:38;99229.31;;;3.88;99.11
73151;BME280;61354;50.758;6.106;2022-12-07T12:54:38;99233.19;;;3.87;99.69
73151;BME280;61354;50.758;6.106;2022-12-07T12:59:42;99225.69;;;4.02;98.82
73151;BME280;61354;50.758;6.106;2022-12-07T13:20:53;99218.16;;;4.07;99.54
73151;BME280;61354;50.758;6.106;2022-12-07T13:33:55;99198.91;;;4.07;98.73
73151;BME280;61354;50.758;6.106;2022-12-07T13:36:23;99205.28;;;4.16;99.26
73151;BME280;61354;50.758;6.106;2022-12-07T13:38:54;99200.00;;;4.06;99.13
73151;BME280;61354;50.758;6.106;2022-12-07T13:41:23;99197.28;;;4.06;98.89
73151;BME280;61354;50.758;6.106;2022-12-07T13:46:18;99194.22;;;4.08;99.06
73151;BME280;61354;50.758;6.106;2022-12-07T13:48:48;99188.59;;;4.13;98.78
73151;BME280;61354;50.758;6.106;2022-12-07T13:51:28;99180.03;;;4.14;99.14
73151;BME280;61354;50.758;6.106;2022-12-07T13:54:01;99185.03;;;4.12;99.17
73151;BME280;61354;50.758;6.106;2022-12-07T13:56:32;99174.84;;;4.13;98.32
73151;BME280;61354;50.758;6.106;2022-12-07T13:58:58;99179.41;;;4.17;99.07
73151;BME280;61354;50.758;6.106;2022-12-07T14:01:24;99176.19;;;4.15;97.98
73151;BME280;61354;50.758;6.106;2022-12-07T14:03:50;99167.78;;;4.20;98.44
73151;BME280;61354;50.758;6.106;2022-12-07T14:06:25;99174.03;;;4.12;98.24
73151;BME280;61354;50.758;6.106;2022-12-07T14:09:07;99166.44;;;4.09;99.00
73151;BME280;61354;50.758;6.106;2022-12-07T14:11:33;99162.53;;;4.10;99.96
73151;BME280;61354;50.758;6.106;2022-12-07T14:14:01;99175.63;;;4.05;99.41
73151;BME280;61354;50.758;6.106;2022-12-07T14:16:33;99159.78;;;4.10;99.50
73151;BME280;61354;50.758;6.106;2022-12-07T14:19:04;99157.50;;;4.04;99.74
73151;BME280;61354;50.758;6.106;2022-12-07T14:21:32;99159.75;;;4.02;99.55
73151;BME280;61354;50.758;6.106;2022-12-07T14:24:12;99157.69;;;4.07;99.44
73151;BME280;61354;50.758;6.106;2022-12-07T14:26:40;99149.56;;;4.02;99.42
73151;BME280;61354;50.758;6.106;2022-12-07T14:31:51;99153.81;;;4.08;99.06
73151;BME280;61354;50.758;6.106;2022-12-07T14:34:20;99149.94;;;4.09;99.46
73151;BME280;61354;50.758;6.106;2022-12-07T14:36:45;99141.84;;;4.04;99.58
73151;BME280;61354;50.758;6.106;2022-12-07T14:39:11;99148.31;;;4.08;99.86
73151;BME280;61354;50.758;6.106;2022-12-07T14:41:36;99142.78;;;3.99;99.46
73151;BME280;61354;50.758;6.106;2022-12-07T14:44:18;99139.91;;;4.05;100.00
73151;BME280;61354;50.758;6.106;2022-12-07T14:46:45;99139.22;;;3.99;100.00
73151;BME280;61354;50.758;6.106;2022-12-07T14:49:10;99144.06;;;4.02;100.00
73151;BME280;61354;50.758;6.106;2022-12-07T14:51:38;99133.72;;;3.99;99.50
73151;BME280;61354;50.758;6.106;2022-12-07T14:54:06;99126.47;;;4.03;99.53
73151;BME280;61354;50.758;6.106;2022-12-07T14:56:37;99125.34;;;4.04;99.57
73151;BME280;61354;50.758;6.106;2022-12-07T14:59:02;99125.97;;;4.01;100.00
73151;BME280;61354;50.758;6.106;2022-12-07T15:01:28;99118.84;;;4.00;100.00
73151;BME280;61354;50.758;6.106;2022-12-07T15:03:53;99110.00;;;4.03;100.00
73151;BME280;61354;50.758;6.106;2022-12-07T15:06:18;99115.97;;;4.05;99.95
73151;BME280;61354;50.758;6.106;2022-12-07T15:08:44;99116.13;;;4.00;100.00
73151;BME280;61354;50.758;6.106;2022-12-07T15:11:16;99124.78;;;3.93;100.00
73151;BME280;61354;50.758;6.106;2022-12-07T15:13:42;99120.25;;;3.89;100.00
73151;BME280;61354;50.758;6.106;2022-12-07T15:16:26;99111.38;;;3.92;99.42
73151;BME280;61354;50.758;6.106;2022-12-07T15:18:51;99112.81;;;3.89;100.00